Arlington Heights, Ohio
Current Conditions -  °F | °C
As of 6:53 AM on Friday 21 Nov 2014 (Local Time) from KHAO Reporting Station
Clear Clear  
Wind Chill:   Ceiling: Unl
Heat Index:   Visibility: 10mi
Dew Point:   Wind: 0mph
Humidity: 84%   Direction: NA
Pressure: 30.46"   Gusts: NA
Location:  39.236°N, 84.4599°W
Report Text: KHAO 211153Z AUTO 00000KT 10SM CLR M13/M15 A3046 RMK AO2 SLP325 I1000 I6000 T11281150 11078 21133 52023
Loading
Personal Weather Stations






























Interactive Weather Map New forecast layout! Learn more

10-Day Weather Forecast

Advertisements
Track Severe Weather on mobile